Airfield :
LOGIN :

Register | Disclaimer

   EN    FR    IT 

 










Legend :    VFR   Marginal VFR   IFR   Intensive IFR   Very Intensive IFR
Visi :
Ceiling :
>= 8 km
>= 3000ft
5 to 8 km
1000 to 3000 ft
1500m to 5 km
500 to 1000 ft
800 to 1500m
200 to 500 ft
< 800m
< 200 ft
Symbols :   Thunderstorms  Fog  Heavy snow  Heavy precipitations  Wind > 20 kt
SIGMETs :     Misc.  Thunderstorms  Icing  Turbulence  Mountain Waves  Volcanic Ashes






- Airport Elevation : 79 ft
- IATA code : SPU


LDSP - Split

CURRENT METAR :
  • 161830Z VRB02KT CAVOK 24/15 Q1016 NOSIG

EXPIRED METARs :
  • 161800Z 00000KT CAVOK 24/16 Q1016 NOSIG
  • 161730Z 00000KT CAVOK 24/18 Q1016 NOSIG
  • 161700Z 34003KT 300V360 CAVOK 26/14 Q1016 NOSIG
  • 161630Z 01003KT 360V060 CAVOK 25/17 Q1016 NOSIG
  • 161600Z 00000KT 9999 FEW045 25/16 Q1016 NOSIG

TAF TAF LDSP
Valid from the 16 at 18:00 until the 17 at 18:00 UTC


161725Z 1618/1718 12007KT 9999 FEW040 TX27/1712Z TN20/1704Z
PROB40
TEMPO 1706/1715 VRB15KT TSRA FEW030CB BKN050
TEMPO 1715/1718 VRB15G25KT 4000 TSRA SCT020CB BKN040



MET'MAP, your aeronautical weather chart ! - Copyright ORBIFLY December 2007 - Disclaimer

ORBIFLY MET'MAP TEAM :

Programming & Development : Alexandra Zaïnal
Concept & original design : Baudouin d'Aumeries
Assistance for programming : Marc-Olivier Méhu
Technical & hardware support : Manuel Goepfert

Contact : metmap@orbifly.com




SOURCES & CREDITS :

   NOAA